Time;durP1;ratioP1;P1;durP2;ratioP2;P2;SDS_P1;SDS_P2;PMS_P1;PMS_P2;Temp;Humidity;BMP_temperature;BMP_pressure;BME280_temperature;BME280_humidity;BME280_pressure;Samples;Min_cycle;Max_cycle;Signal;HPM_P1;HPM_P2
2022/05/10 00:02:23;;;;;;;;;17.00;14.75;;;;;;;;6492132;39;8918;-59
2022/05/10 00:08:25;;;;;;;;;15.00;14.33;;;;;;;;6493054;39;9562;-58
2022/05/10 00:14:28;;;;;;;;;14.00;13.67;;;;;;;;6493526;39;8966;-59
2022/05/10 00:20:31;;;;;;;;;13.00;13.00;;;;;;;;6492804;31;8889;-60
2022/05/10 00:26:33;;;;;;;;;14.00;13.33;;;;;;;;6492686;46;8872;-60
2022/05/10 00:32:36;;;;;;;;;13.33;12.33;;;;;;;;6492702;31;8947;-60
2022/05/10 00:38:41;;;;;;;;;13.67;13.67;;;;;;;;6492413;39;9577;-59
2022/05/10 00:44:49;;;;;;;;;11.00;10.00;;;;;;;;6492677;39;8927;-59
2022/05/10 00:51:30;;;;;;;;;11.67;10.00;;;;;;;;6492075;39;8903;-58
2022/05/10 00:57:47;;;;;;;;;11.00;10.00;;;;;;;;6492599;46;8915;-59
2022/05/10 01:04:12;;;;;;;;;11.00;8.67;;;;;;;;6492698;39;8891;-59
2022/05/10 01:10:43;;;;;;;;;10.00;10.00;;;;;;;;6492107;39;8900;-59
2022/05/10 01:16:46;;;;;;;;;11.00;9.00;;;;;;;;6492742;39;8887;-60
2022/05/10 01:23:17;;;;;;;;;9.33;9.33;;;;;;;;6492617;39;8964;-58
2022/05/10 01:29:26;;;;;;;;;12.00;12.00;;;;;;;;6492805;31;8930;-59
2022/05/10 01:35:31;;;;;;;;;11.33;11.00;;;;;;;;6492887;39;8877;-59
2022/05/10 01:41:52;;;;;;;;;10.67;10.00;;;;;;;;6492304;36;9530;-59
2022/05/10 01:48:00;;;;;;;;;12.00;11.33;;;;;;;;6492180;31;9022;-59
2022/05/10 01:54:05;;;;;;;;;14.00;14.00;;;;;;;;6491655;46;8917;-58
2022/05/10 02:00:24;;;;;;;;;11.33;11.00;;;;;;;;6491765;39;8911;-59
2022/05/10 02:06:34;;;;;;;;;15.33;14.00;;;;;;;;6503157;31;8875;-59
2022/05/10 02:12:52;;;;;;;;;18.67;17.67;;;;;;;;6491971;36;8936;-58
2022/05/10 02:19:06;;;;;;;;;12.33;12.33;;;;;;;;6491895;39;8895;-60
2022/05/10 02:25:22;;;;;;;;;13.33;12.33;;;;;;;;6491444;46;8900;-59
2022/05/10 02:38:06;;;;;;;;;13.33;12.33;;;;;;;;6491489;39;8885;-58
2022/05/10 02:44:09;;;;;;;;;14.33;14.33;;;;;;;;6491995;39;8904;-59
2022/05/10 02:50:20;;;;;;;;;13.67;13.67;;;;;;;;6492060;39;8908;-59
2022/05/10 02:56:26;;;;;;;;;14.33;13.67;;;;;;;;6490707;46;8875;-59
2022/05/10 03:02:35;;;;;;;;;18.67;14.67;;;;;;;;6491087;46;8907;-58
2022/05/10 03:08:39;;;;;;;;;13.67;13.67;;;;;;;;6491682;39;9536;-59
2022/05/10 03:14:41;;;;;;;;;17.00;17.00;;;;;;;;6491464;39;8967;-59
2022/05/10 03:20:44;;;;;;;;;17.00;16.00;;;;;;;;6491184;39;8922;-60
2022/05/10 03:26:50;;;;;;;;;20.00;20.00;;;;;;;;6491410;36;8869;-59
2022/05/10 03:32:54;;;;;;;;;20.00;15.33;;;;;;;;6492150;36;8915;-60
2022/05/10 03:38:56;;;;;;;;;14.33;14.33;;;;;;;;6493337;39;8901;-59
2022/05/10 03:44:59;;;;;;;;;19.67;15.33;;;;;;;;6492620;46;8909;-59
2022/05/10 03:51:05;;;;;;;;;15.67;14.67;;;;;;;;6493536;39;8935;-59
2022/05/10 03:57:23;;;;;;;;;20.00;17.67;;;;;;;;6493625;31;8879;-59
2022/05/10 04:03:27;;;;;;;;;20.67;17.67;;;;;;;;6474845;31;9597;-59
2022/05/10 04:09:29;;;;;;;;;15.33;14.67;;;;;;;;6492743;39;9591;-58
